Station Historical Data
Daily Summary for January 8, 2018 Units:  English    Metric   Both
« Previous Day
Next Day »
Daily Weekly Monthly Yearly Custom
  High: Low: Average:
Temperature: TemperatureF °F 30.8 °F 33 °F
Dew Point: DewpointF °F 17.3 °F 28.4 °F
Humidity: Humidity% 57% 83%
Wind Speed: WindSpeedMPHmph 3.0mph 9.9mph
Wind Gust: WindSpeedGustMPHmph - -
Wind- - SW
Pressure: PressureIn in 29.87 in -
Precipitation: 0.31 in    
Historical Graphs
 
 
Tabular Data for January 8, 2018
Time Temperature Dew Point Pressure Wind Wind Speed Wind Gust Humidity Rainfall Rate (Hourly)
TemperatureF °F DewpointF °F PressureIn in Calm     Humidity% HourlyPrecipIn in
04:15 31.0 °F 17.9 °F 30.00 in SW 5.0 mph 12.0 mph 58% 0.00 in
04:24 31.0 °F 17.9 °F 30.00 in SSW 6.0 mph 11.0 mph 58% 0.00 in
04:35 31.0 °F 17.9 °F 29.99 in SW 6.0 mph 8.0 mph 58% 0.00 in
04:45 30.9 °F 17.8 °F 29.99 in SSW 3.0 mph 9.0 mph 58% 0.00 in
04:50 30.8 °F 17.7 °F 29.99 in South 5.0 mph 6.0 mph 58% 0.00 in
04:55 30.8 °F 17.3 °F 29.99 in SSW 3.0 mph 7.0 mph 57% 0.00 in
05:00 30.8 °F 17.3 °F 29.98 in SSW 3.0 mph 7.0 mph 57% 0.00 in
05:05 30.9 °F 17.4 °F 29.98 in SSW 3.0 mph 8.0 mph 57% 0.00 in
05:15 30.9 °F 17.4 °F 29.97 in SSW 4.0 mph 9.0 mph 57% 0.00 in
05:20 31.0 °F 17.5 °F 29.97 in SSW 4.0 mph 9.0 mph 57% 0.00 in
05:25 31.0 °F 17.5 °F 29.97 in SSW 3.0 mph 7.0 mph 57% 0.00 in
05:34 31.1 °F 17.6 °F 29.96 in SSW 4.0 mph 9.0 mph 57% 0.00 in
05:40 31.3 °F 17.8 °F 29.96 in SSW 7.0 mph 8.0 mph 57% 0.00 in
05:45 31.5 °F 18.0 °F 29.95 in SW 3.0 mph 11.0 mph 57% 0.00 in
05:50 31.7 °F 18.2 °F 29.95 in South 4.0 mph 12.0 mph 57% 0.00 in
06:00 32.1 °F 18.6 °F 29.95 in SW 4.0 mph 11.0 mph 57% 0.00 in
06:10 32.3 °F 19.2 °F 29.95 in South 5.0 mph 15.0 mph 58% 0.00 in
06:15 32.4 °F 19.7 °F 29.95 in WSW 6.0 mph 17.0 mph 59% 0.00 in
06:30 32.5 °F 21.7 °F 29.94 in SSW 7.0 mph 13.0 mph 64% 0.00 in
06:35 32.4 °F 21.9 °F 29.94 in SSW 7.0 mph 12.0 mph 65% 0.00 in
06:40 32.3 °F 22.2 °F 29.94 in SSW 6.0 mph 12.0 mph 66% 0.00 in
06:50 32.1 °F 23.4 °F 29.93 in SSW 6.0 mph 12.0 mph 70% 0.00 in
07:00 31.8 °F 24.1 °F 29.93 in SSW 6.0 mph 14.0 mph 73% 0.00 in
07:10 31.7 °F 24.7 °F 29.92 in SSW 6.0 mph 12.0 mph 75% 0.00 in
07:15 31.7 °F 25.0 °F 29.92 in SSW 6.0 mph 14.0 mph 76% 0.00 in
07:30 31.8 °F 26.0 °F 29.91 in SSW 6.0 mph 11.0 mph 79% 0.00 in
07:40 32.1 °F 26.6 °F 29.90 in SSW 6.0 mph 14.0 mph 80% 0.00 in
07:50 32.2 °F 27.0 °F 29.89 in SSW 7.0 mph 14.0 mph 81% 0.00 in
08:00 32.2 °F 27.6 °F 29.89 in SSW 7.0 mph 13.0 mph 83% 0.00 in
08:10 32.0 °F 27.7 °F 29.89 in SSW 8.0 mph 17.0 mph 84% 0.00 in
08:20 31.7 °F 28.0 °F 29.89 in SSW 8.0 mph 16.0 mph 86% 0.00 in
08:40 31.4 °F 28.0 °F 29.89 in SSW 7.0 mph 18.0 mph 87% 0.00 in
08:55 31.4 °F 28.3 °F 29.89 in SSW 7.0 mph 15.0 mph 88% 0.00 in
09:00 31.4 °F 28.3 °F 29.89 in SSW 8.0 mph 15.0 mph 88% 0.00 in
09:05 31.4 °F 28.3 °F 29.89 in SSE 15.0 mph 18.0 mph 88% 0.00 in
09:10 31.4 °F 28.5 °F 29.89 in SSE 3.0 mph 15.0 mph 89% 0.00 in
09:25 31.5 °F 28.6 °F 29.89 in SSW 7.0 mph 17.0 mph 89% 0.00 in
09:45 32.0 °F 29.4 °F 29.89 in SW 9.0 mph 19.0 mph 90% 0.00 in
10:05 32.5 °F 29.9 °F 29.89 in SW 12.0 mph 25.0 mph 90% 0.00 in
10:15 32.6 °F 30.0 °F 29.89 in SW 11.0 mph 22.0 mph 90% 0.00 in
10:20 32.6 °F 30.0 °F 29.89 in SW 10.0 mph 22.0 mph 90% 0.00 in
10:40 33.0 °F 30.4 °F 29.89 in SW 12.0 mph 24.0 mph 90% 0.00 in
11:05 33.0 °F 30.4 °F 29.89 in SW 10.0 mph 21.0 mph 90% 0.00 in
11:15 33.3 °F 30.7 °F 29.89 in WSW 15.0 mph 22.0 mph 90% 0.00 in
11:25 33.4 °F 30.8 °F 29.89 in SW 11.0 mph 23.0 mph 90% 0.00 in
11:35 33.5 °F 30.9 °F 29.88 in SW 11.0 mph 24.0 mph 90% 0.00 in
11:45 34.0 °F 31.1 °F 29.88 in SW 12.0 mph 23.0 mph 89% 0.00 in
11:59 33.9 °F 31.0 °F 29.87 in SW 12.0 mph 24.0 mph 89% 0.00 in
12:25 33.8 °F 30.9 °F 29.87 in SW 12.0 mph 23.0 mph 89% 0.00 in
12:30 33.9 °F 31.0 °F 29.87 in West 9.0 mph 22.0 mph 89% 0.00 in
12:40 33.9 °F 31.0 °F 29.87 in SW 13.0 mph 26.0 mph 89% 0.00 in
12:54 33.9 °F 31.0 °F 29.87 in SW 13.0 mph 27.0 mph 89% 0.00 in
12:59 33.9 °F 31.0 °F 29.87 in SW 12.0 mph 27.0 mph 89% 0.00 in
13:09 33.9 °F 31.0 °F 29.87 in WSW 12.0 mph 24.0 mph 89% 0.00 in
13:14 34.0 °F 31.1 °F 29.87 in WSW 12.0 mph 24.0 mph 89% 0.00 in
13:20 34.1 °F 31.2 °F 29.87 in WSW 12.0 mph 23.0 mph 89% 0.00 in
13:24 34.0 °F 31.1 °F 29.88 in SW 15.0 mph 23.0 mph 89% 0.00 in
13:34 34.1 °F 31.2 °F 29.88 in South 10.0 mph 23.0 mph 89% 0.00 in
13:39 34.0 °F 31.1 °F 29.87 in WSW 13.0 mph 23.0 mph 89% 0.00 in
13:44 34.1 °F 31.2 °F 29.88 in SW 12.0 mph 24.0 mph 89% 0.00 in
13:49 34.1 °F 31.2 °F 29.88 in SW 10.0 mph 27.0 mph 89% 0.00 in
13:54 34.2 °F 31.3 °F 29.87 in SW 15.0 mph 27.0 mph 89% 0.00 in
14:00 34.2 °F 31.3 °F 29.88 in WSW 14.0 mph 27.0 mph 89% 0.00 in
14:09 34.1 °F 31.2 °F 29.88 in WSW 13.0 mph 23.0 mph 89% 0.00 in
14:14 34.1 °F 31.2 °F 29.89 in SW 17.0 mph 21.0 mph 89% 0.00 in
14:19 34.0 °F 31.1 °F 29.89 in WSW 23.0 mph 28.0 mph 89% 0.00 in
14:24 34.0 °F 31.1 °F 29.88 in WSW 13.0 mph 28.0 mph 89% 0.00 in
14:30 34.0 °F 31.1 °F 29.89 in WSW 14.0 mph 22.0 mph 89% 0.00 in
14:34 34.0 °F 31.1 °F 29.88 in WSW 12.0 mph 25.0 mph 89% 0.00 in
14:40 34.0 °F 31.1 °F 29.89 in WSW 12.0 mph 25.0 mph 89% 0.00 in
14:45 34.0 °F 31.1 °F 29.89 in WSW 12.0 mph 22.0 mph 89% 0.00 in
14:54 33.9 °F 31.0 °F 29.89 in SSW 12.0 mph 24.0 mph 89% 0.01 in
15:00 33.9 °F 31.0 °F 29.89 in SW 16.0 mph 23.0 mph 89% 0.01 in
15:05 33.9 °F 31.0 °F 29.89 in SW 12.0 mph 23.0 mph 89% 0.01 in
15:55 33.8 °F 31.2 °F 29.89 in WSW 11.0 mph 18.0 mph 90% 0.02 in
16:15 33.8 °F 31.2 °F 29.89 in SW 8.0 mph 22.0 mph 90% 0.03 in
16:35 33.8 °F 31.2 °F 29.89 in WSW 12.0 mph 21.0 mph 90% 0.04 in
17:00 33.6 °F 31.3 °F 29.89 in WSW 11.0 mph 20.0 mph 91% 0.06 in
17:15 33.5 °F 31.2 °F 29.90 in WSW 10.0 mph 22.0 mph 91% 0.07 in
17:20 33.5 °F 31.2 °F 29.90 in WSW 10.0 mph 22.0 mph 91% 0.07 in
17:35 33.6 °F 31.3 °F 29.89 in WSW 11.0 mph 22.0 mph 91% 0.08 in
17:55 33.7 °F 31.4 °F 29.90 in WSW 11.0 mph 28.0 mph 91% 0.08 in
18:00 33.7 °F 31.4 °F 29.90 in WSW 10.0 mph 21.0 mph 91% 0.08 in
18:05 33.7 °F 31.4 °F 29.91 in WSW 10.0 mph 21.0 mph 91% 0.07 in
18:10 33.6 °F 31.3 °F 29.91 in WSW 10.0 mph 22.0 mph 91% 0.08 in
18:20 33.6 °F 31.3 °F 29.91 in SW 4.0 mph 22.0 mph 91% 0.07 in
18:25 33.6 °F 31.3 °F 29.92 in WSW 10.0 mph 22.0 mph 91% 0.08 in
18:40 33.6 °F 31.3 °F 29.92 in WSW 10.0 mph 21.0 mph 91% 0.08 in
18:50 33.6 °F 31.0 °F 29.92 in WSW 11.0 mph 23.0 mph 90% 0.08 in
18:54 33.7 °F 31.1 °F 29.93 in WSW 11.0 mph 19.0 mph 90% 0.07 in
19:00 33.6 °F 31.0 °F 29.93 in WSW 9.0 mph 18.0 mph 90% 0.06 in
19:05 33.6 °F 31.0 °F 29.93 in WSW 10.0 mph 21.0 mph 90% 0.07 in
19:10 33.6 °F 31.0 °F 29.93 in WSW 7.0 mph 18.0 mph 90% 0.06 in
19:14 33.7 °F 31.1 °F 29.93 in WSW 10.0 mph 20.0 mph 90% 0.05 in
19:15 33.7 °F 31.1 °F 29.93 in WSW 12.0 mph 20.0 mph 90% 0.06 in
19:25 33.7 °F 31.1 °F 29.94 in WSW 11.0 mph 21.0 mph 90% 0.05 in
19:35 33.8 °F 30.9 °F 29.95 in WSW 10.0 mph 19.0 mph 89% 0.04 in
19:40 33.8 °F 30.9 °F 29.95 in West 8.0 mph 18.0 mph 89% 0.03 in
19:44 33.8 °F 30.9 °F 29.94 in West 9.0 mph 20.0 mph 89% 0.03 in
19:45 33.8 °F 30.9 °F 29.94 in WSW 10.0 mph 20.0 mph 89% 0.03 in
19:50 33.8 °F 30.9 °F 29.94 in WSW 10.0 mph 20.0 mph 89% 0.03 in
19:54 33.8 °F 30.9 °F 29.94 in WSW 11.0 mph 23.0 mph 89% 0.03 in
20:00 33.8 °F 30.6 °F 29.94 in SW 14.0 mph 17.0 mph 88% 0.03 in
20:05 33.9 °F 30.7 °F 29.94 in WNW 12.0 mph 24.0 mph 88% 0.02 in
20:10 33.9 °F 30.7 °F 29.95 in WSW 11.0 mph 24.0 mph 88% 0.02 in
20:14 33.9 °F 30.7 °F 29.94 in WSW 10.0 mph 22.0 mph 88% 0.02 in
20:24 34.0 °F 30.5 °F 29.95 in WSW 11.0 mph 24.0 mph 87% 0.02 in
20:25 34.0 °F 30.5 °F 29.95 in WSW 10.0 mph 24.0 mph 87% 0.02 in
20:29 34.0 °F 30.5 °F 29.95 in WSW 12.0 mph 24.0 mph 87% 0.02 in
20:30 34.0 °F 30.5 °F 29.95 in SSW 9.0 mph 23.0 mph 87% 0.02 in
20:34 34.0 °F 30.5 °F 29.95 in WSW 12.0 mph 26.0 mph 87% 0.02 in
20:40 34.0 °F 30.5 °F 29.95 in SW 10.0 mph 19.0 mph 87% 0.02 in
20:41 34.0 °F 30.5 °F 29.95 in WSW 11.0 mph 26.0 mph 87% 0.02 in
20:45 34.0 °F 30.3 °F 29.95 in SW 11.0 mph 18.0 mph 86% 0.02 in
20:49 34.0 °F 30.5 °F 29.95 in WSW 8.0 mph 18.0 mph 87% 0.01 in
20:50 34.0 °F 30.5 °F 29.95 in WSW 9.0 mph 18.0 mph 87% 0.01 in
20:54 34.0 °F 30.5 °F 29.95 in West 15.0 mph 20.0 mph 87% 0.01 in
21:00 33.9 °F 30.2 °F 29.95 in WSW 11.0 mph 21.0 mph 86% 0.02 in
21:05 33.9 °F 30.2 °F 29.95 in WSW 11.0 mph 23.0 mph 86% 0.02 in
21:14 33.9 °F 30.2 °F 29.95 in SW 12.0 mph 22.0 mph 86% 0.02 in
21:20 33.9 °F 30.2 °F 29.95 in WSW 12.0 mph 22.0 mph 86% 0.02 in
21:24 33.9 °F 30.2 °F 29.95 in West 22.0 mph 23.0 mph 86% 0.01 in
21:25 33.9 °F 30.2 °F 29.95 in WSW 13.0 mph 23.0 mph 86% 0.01 in
21:29 33.9 °F 30.2 °F 29.95 in WSW 12.0 mph 23.0 mph 86% 0.01 in
21:34 33.8 °F 30.1 °F 29.95 in SSW 13.0 mph 22.0 mph 86% 0.01 in
21:39 33.9 °F 30.2 °F 29.95 in WSW 8.0 mph 22.0 mph 86% 0.01 in
21:44 33.8 °F 30.1 °F 29.95 in WSW 11.0 mph 22.0 mph 86% 0.02 in
21:50 33.8 °F 30.1 °F 29.95 in WSW 10.0 mph 22.0 mph 86% 0.02 in
21:54 33.8 °F 30.1 °F 29.95 in West 12.0 mph 22.0 mph 86% 0.02 in
21:59 33.8 °F 30.1 °F 29.95 in West 7.0 mph 22.0 mph 86% 0.01 in
22:04 33.8 °F 30.1 °F 29.95 in WSW 11.0 mph 23.0 mph 86% 0.01 in
22:10 33.8 °F 30.3 °F 29.96 in WSW 10.0 mph 23.0 mph 87% 0.01 in
22:14 33.7 °F 30.2 °F 29.96 in SW 11.0 mph 18.0 mph 87% 0.01 in
22:24 33.7 °F 30.2 °F 29.96 in SSW 9.0 mph 18.0 mph 87% 0.01 in
22:29 33.7 °F 30.2 °F 29.96 in WSW 11.0 mph 21.0 mph 87% 0.02 in
22:34 33.7 °F 30.2 °F 29.96 in WSW 11.0 mph 24.0 mph 87% 0.02 in
22:39 33.7 °F 30.2 °F 29.96 in SW 13.0 mph 23.0 mph 87% 0.02 in
22:54 33.6 °F 30.1 °F 29.97 in WSW 11.0 mph 18.0 mph 87% 0.01 in
22:59 33.5 °F 30.0 °F 29.97 in WSW 13.0 mph 18.0 mph 87% 0.01 in
23:04 33.5 °F 30.0 °F 29.97 in WSW 11.0 mph 19.0 mph 87% 0.01 in
23:14 33.5 °F 30.0 °F 29.97 in WSW 10.0 mph 20.0 mph 87% 0.01 in
23:19 33.5 °F 30.0 °F 29.98 in SW 13.0 mph 19.0 mph 87% 0.01 in
23:24 33.5 °F 30.0 °F 29.98 in WSW 11.0 mph 20.0 mph 87% 0.01 in
23:29 33.4 °F 29.9 °F 29.98 in WSW 11.0 mph 22.0 mph 87% 0.00 in
23:34 33.4 °F 29.9 °F 29.98 in WSW 11.0 mph 24.0 mph 87% 0.01 in
23:40 33.4 °F 29.9 °F 29.98 in WSW 12.0 mph 24.0 mph 87% 0.01 in
23:44 33.3 °F 29.8 °F 29.98 in WSW 7.0 mph 18.0 mph 87% 0.01 in
23:49 33.3 °F 29.8 °F 29.98 in WSW 10.0 mph 25.0 mph 87% 0.01 in
23:54 33.3 °F 29.8 °F 29.98 in WSW 11.0 mph 25.0 mph 87% 0.01 in
Buffalo, New York, USA
Compliments of Weather Underground - 1.75 mb